createdAt,value
2022-12-18T00:03:10.430Z,31.17
2022-12-18T00:13:13.954Z,29.52
2022-12-18T00:18:20.406Z,28.95
2022-12-18T00:23:22.357Z,29.87
2022-12-18T00:28:24.022Z,31.10
2022-12-18T00:33:27.027Z,27.60
2022-12-18T00:38:28.674Z,28.12
2022-12-18T00:43:30.358Z,28.23
2022-12-18T00:48:33.804Z,27.77
2022-12-18T00:58:37.477Z,28.58
2022-12-18T01:03:41.137Z,27.67
2022-12-18T01:08:43.744Z,28.23
2022-12-18T01:13:45.710Z,29.48
2022-12-18T01:18:51.642Z,27.62
2022-12-18T01:23:56.015Z,29.70
2022-12-18T01:28:58.016Z,25.95
2022-12-18T01:34:02.201Z,25.35
2022-12-18T01:39:06.721Z,29.37
2022-12-18T01:44:42.010Z,26.60
2022-12-18T01:49:45.092Z,28.35
2022-12-18T01:54:48.266Z,26.83
2022-12-18T01:59:53.767Z,29.55
2022-12-18T02:04:56.863Z,24.85
2022-12-18T02:10:04.118Z,29.12
2022-12-18T02:15:13.448Z,27.05
2022-12-18T02:20:21.133Z,26.50
2022-12-18T02:25:39.666Z,26.85
2022-12-18T02:30:44.981Z,27.50
2022-12-18T02:35:48.186Z,26.42
2022-12-18T02:40:51.921Z,24.40
2022-12-18T02:45:57.494Z,27.70
2022-12-18T02:51:04.834Z,26.37
2022-12-18T02:56:10.861Z,24.55
2022-12-18T03:01:20.681Z,30.05
2022-12-18T03:06:27.443Z,25.70
2022-12-18T03:11:34.510Z,24.83
2022-12-18T03:16:37.596Z,24.65
2022-12-18T03:21:44.184Z,27.05
2022-12-18T03:26:49.997Z,26.58
2022-12-18T03:31:57.479Z,25.40
2022-12-18T03:36:59.276Z,27.50
2022-12-18T03:42:08.347Z,28.55
2022-12-18T03:47:17.419Z,24.90
2022-12-18T03:52:26.829Z,28.27
2022-12-18T03:57:31.388Z,25.12
2022-12-18T04:02:35.928Z,25.30
2022-12-18T04:07:39.149Z,24.77
2022-12-18T04:12:40.798Z,25.25
2022-12-18T04:17:48.717Z,27.98
2022-12-18T04:22:50.442Z,27.27
2022-12-18T04:27:52.087Z,27.67
2022-12-18T04:32:55.038Z,23.70
2022-12-18T04:37:56.805Z,27.05
2022-12-18T04:42:58.467Z,28.20
2022-12-18T04:48:02.833Z,27.05
2022-12-18T04:53:04.517Z,29.15
2022-12-18T04:58:06.150Z,32.30
2022-12-18T05:03:09.236Z,27.80
2022-12-18T05:08:10.899Z,30.17
2022-12-18T05:13:12.603Z,30.08
2022-12-18T05:18:15.622Z,29.80
2022-12-18T05:23:17.313Z,29.73
2022-12-18T05:28:19.233Z,29.95
2022-12-18T05:33:23.561Z,27.33
2022-12-18T05:38:26.601Z,28.52
2022-12-18T05:43:28.530Z,28.60
2022-12-18T05:48:31.554Z,29.85
2022-12-18T05:53:33.438Z,27.75
2022-12-18T05:58:35.201Z,29.80
2022-12-18T06:03:38.340Z,29.92
2022-12-18T06:08:45.871Z,32.10
2022-12-18T06:13:53.487Z,30.85
2022-12-18T06:18:59.844Z,30.55
2022-12-18T06:24:01.804Z,33.40
2022-12-18T06:29:03.531Z,31.25
2022-12-18T06:34:06.526Z,31.65
2022-12-18T06:39:08.145Z,31.02
2022-12-18T06:44:10.953Z,29.93
2022-12-18T06:49:14.292Z,30.35
2022-12-18T06:54:16.738Z,31.52
2022-12-18T06:59:18.577Z,31.37
2022-12-18T07:04:21.596Z,32.00
2022-12-18T07:09:23.248Z,30.83
2022-12-18T07:14:24.932Z,30.88
2022-12-18T07:19:27.903Z,28.65
2022-12-18T07:24:30.837Z,29.35
2022-12-18T07:29:32.514Z,29.55
2022-12-18T07:34:35.555Z,30.75
2022-12-18T07:39:37.337Z,28.87
2022-12-18T07:44:38.968Z,29.77
2022-12-18T07:49:41.933Z,30.62
2022-12-18T07:54:43.813Z,26.73
2022-12-18T07:59:45.491Z,28.00
2022-12-18T08:04:48.479Z,29.75
2022-12-18T08:09:50.156Z,28.50
2022-12-18T08:14:52.134Z,28.55
2022-12-18T08:19:55.141Z,29.65
2022-12-18T08:24:56.756Z,27.85
2022-12-18T08:29:58.821Z,27.25
2022-12-18T08:35:01.832Z,30.10
2022-12-18T08:40:04.048Z,29.35
2022-12-18T08:45:06.545Z,30.40
2022-12-18T08:50:10.795Z,27.33
2022-12-18T08:55:12.405Z,28.08
2022-12-18T09:00:15.099Z,31.40
2022-12-18T09:05:18.346Z,31.85
2022-12-18T09:10:20.013Z,27.33
2022-12-18T09:15:22.520Z,29.95
2022-12-18T09:20:25.530Z,29.67
2022-12-18T09:25:27.278Z,29.83
2022-12-18T09:30:29.033Z,29.98
2022-12-18T09:35:32.073Z,31.50
2022-12-18T09:40:37.030Z,30.90
2022-12-18T09:45:43.533Z,30.58
2022-12-18T09:50:48.941Z,32.92
2022-12-18T09:55:52.729Z,34.72
2022-12-18T10:00:54.453Z,35.10
2022-12-18T10:06:08.201Z,33.65
2022-12-18T10:11:39.056Z,34.25
2022-12-18T10:16:51.610Z,33.33
2022-12-18T10:22:01.919Z,32.83
2022-12-18T10:27:14.623Z,35.35
2022-12-18T10:32:17.876Z,32.30
2022-12-18T10:37:23.577Z,32.15
2022-12-18T10:42:25.232Z,33.95
2022-12-18T10:47:26.924Z,33.97
2022-12-18T10:52:29.912Z,33.38
2022-12-18T10:57:35.182Z,34.45
2022-12-18T11:02:38.939Z,34.05
2022-12-18T11:12:51.435Z,27.15
2022-12-18T11:17:53.847Z,34.78
2022-12-18T11:22:59.128Z,34.50
2022-12-18T11:28:03.565Z,34.85
2022-12-18T11:33:07.849Z,31.55
2022-12-18T11:38:18.703Z,32.40
2022-12-18T11:43:27.838Z,33.20
2022-12-18T11:48:33.867Z,32.35
2022-12-18T11:53:36.936Z,31.00
2022-12-18T11:58:47.977Z,31.23
2022-12-18T12:04:31.015Z,34.20
2022-12-18T12:09:41.037Z,31.02
2022-12-18T12:14:53.170Z,30.27
2022-12-18T12:20:02.767Z,31.83
2022-12-18T12:25:23.447Z,31.27
2022-12-18T12:30:35.826Z,33.67
2022-12-18T12:35:47.638Z,33.22
2022-12-18T12:41:02.169Z,34.80
2022-12-18T12:46:07.525Z,33.97
2022-12-18T12:51:14.787Z,30.83
2022-12-18T12:56:20.900Z,31.08
2022-12-18T13:01:29.950Z,32.47
2022-12-18T13:06:44.752Z,31.12
2022-12-18T13:11:48.692Z,32.90
2022-12-18T13:16:50.582Z,31.83
2022-12-18T13:21:56.677Z,31.23
2022-12-18T13:26:59.718Z,32.38
2022-12-18T13:32:02.074Z,35.13
2022-12-18T13:37:43.251Z,33.45
2022-12-18T13:42:46.464Z,31.17
2022-12-18T13:47:48.673Z,31.63
2022-12-18T13:52:52.063Z,31.60
2022-12-18T13:58:05.748Z,27.23
2022-12-18T14:03:22.083Z,30.77
2022-12-18T14:08:28.148Z,32.22
2022-12-18T14:13:33.650Z,30.08
2022-12-18T14:18:43.681Z,33.63
2022-12-18T14:23:46.016Z,30.17
2022-12-18T14:28:49.186Z,31.00
2022-12-18T14:33:50.989Z,31.23
2022-12-18T14:38:54.392Z,28.15
2022-12-18T14:44:06.844Z,29.77
2022-12-18T14:49:21.995Z,28.87
2022-12-18T14:54:25.272Z,31.30
2022-12-18T14:59:29.542Z,28.17
2022-12-18T15:04:34.150Z,30.50
2022-12-18T15:09:35.983Z,31.00
2022-12-18T15:14:42.455Z,29.45
2022-12-18T15:19:45.894Z,33.60
2022-12-18T15:24:47.896Z,28.20
2022-12-18T15:30:03.974Z,32.05
2022-12-18T15:35:14.247Z,31.30
2022-12-18T15:40:17.450Z,29.98
2022-12-18T15:45:20.538Z,32.60
2022-12-18T15:50:24.371Z,30.77
2022-12-18T15:55:26.052Z,30.85
2022-12-18T16:00:29.288Z,31.08
2022-12-18T16:05:31.499Z,31.60
2022-12-18T16:10:33.322Z,29.67
2022-12-18T16:15:36.343Z,32.70
2022-12-18T16:20:39.426Z,31.53
2022-12-18T16:25:41.117Z,32.43
2022-12-18T16:30:44.138Z,34.25
2022-12-18T16:35:52.697Z,32.70
2022-12-18T16:40:54.326Z,32.75
2022-12-18T16:45:59.887Z,29.83
2022-12-18T16:51:03.460Z,34.45
2022-12-18T16:56:05.519Z,30.98
2022-12-18T17:01:10.519Z,33.05
2022-12-18T17:06:12.189Z,35.63
2022-12-18T17:11:13.881Z,30.73
2022-12-18T17:16:17.198Z,32.80
2022-12-18T17:21:19.040Z,34.95
2022-12-18T17:26:20.759Z,35.25
2022-12-18T17:31:26.246Z,33.17
2022-12-18T17:36:27.942Z,33.97
2022-12-18T17:41:30.740Z,30.90
2022-12-18T17:46:34.260Z,33.75
2022-12-18T17:51:35.955Z,33.03
2022-12-18T17:56:38.301Z,34.55
2022-12-18T18:01:45.022Z,32.83
2022-12-18T18:06:49.635Z,33.33
2022-12-18T18:16:55.789Z,34.70
2022-12-18T18:21:58.995Z,32.63
2022-12-18T18:27:01.059Z,34.58
2022-12-18T18:32:04.759Z,32.25
2022-12-18T18:37:06.515Z,31.85
2022-12-18T18:42:08.374Z,33.35
2022-12-18T18:47:11.345Z,33.58
2022-12-18T18:52:12.957Z,35.83
2022-12-18T18:57:25.176Z,34.63
2022-12-18T19:02:33.697Z,36.53
2022-12-18T19:07:35.494Z,36.30
2022-12-18T19:12:37.187Z,33.67
2022-12-18T19:17:42.477Z,34.10
2022-12-18T19:22:55.718Z,33.47
2022-12-18T19:27:57.812Z,34.30
2022-12-18T19:33:09.723Z,32.53
2022-12-18T19:38:22.508Z,35.70
2022-12-18T19:43:24.277Z,34.65
2022-12-18T19:48:27.367Z,35.65
2022-12-18T19:53:29.035Z,38.22
2022-12-18T19:58:30.682Z,36.47
2022-12-18T20:03:34.002Z,35.85
2022-12-18T20:08:35.914Z,36.55
2022-12-18T20:13:37.970Z,34.60
2022-12-18T20:18:41.271Z,36.97
2022-12-18T20:23:43.314Z,36.10
2022-12-18T20:28:45.690Z,36.15
2022-12-18T20:33:51.028Z,33.72
2022-12-18T20:38:57.014Z,33.92
2022-12-18T20:43:59.774Z,31.12
2022-12-18T20:49:02.827Z,35.55
2022-12-18T20:54:07.923Z,31.40
2022-12-18T20:59:12.061Z,33.15
2022-12-18T21:04:15.103Z,32.97
2022-12-18T21:09:19.272Z,35.25
2022-12-18T21:14:23.342Z,34.47
2022-12-18T21:19:27.661Z,32.20
2022-12-18T21:24:32.574Z,31.40
2022-12-18T21:29:34.692Z,33.38
2022-12-18T21:34:37.866Z,36.63
2022-12-18T21:39:39.721Z,36.53
2022-12-18T21:44:42.583Z,37.53
2022-12-18T21:49:45.702Z,34.42
2022-12-18T21:54:50.390Z,36.65
2022-12-18T21:59:52.107Z,34.83
2022-12-18T22:04:55.582Z,31.30
2022-12-18T22:09:57.817Z,33.67
2022-12-18T22:15:02.010Z,31.47
2022-12-18T22:20:06.043Z,33.70
2022-12-18T22:25:08.786Z,34.35
2022-12-18T22:30:11.925Z,33.55
2022-12-18T22:35:16.124Z,32.42
2022-12-18T22:40:23.867Z,29.30
2022-12-18T22:45:26.910Z,31.45
2022-12-18T22:50:30.388Z,34.85
2022-12-18T22:55:32.059Z,33.40
2022-12-18T23:00:33.666Z,31.23
2022-12-18T23:05:36.617Z,34.00
2022-12-18T23:10:38.387Z,30.73
2022-12-18T23:15:41.827Z,29.50
2022-12-18T23:20:44.919Z,32.20
2022-12-18T23:25:47.736Z,31.02
2022-12-18T23:30:50.193Z,31.23
2022-12-18T23:35:58.200Z,29.50
2022-12-18T23:41:00.140Z,29.23
2022-12-18T23:46:02.165Z,32.55
2022-12-18T23:51:07.390Z,31.25
2022-12-18T23:56:10.679Z,29.00
